createdAt,value
2018-12-29T00:01:17.005Z,29.27
2018-12-29T00:07:20.422Z,31.70
2018-12-29T00:13:23.762Z,36.20
2018-12-29T00:19:27.140Z,40.23
2018-12-29T00:25:30.535Z,39.70
2018-12-29T00:31:33.889Z,37.57
2018-12-29T00:37:37.420Z,37.93
2018-12-29T00:43:40.781Z,34.53
2018-12-29T00:49:44.116Z,37.63
2018-12-29T00:55:47.441Z,40.27
2018-12-29T01:01:51.553Z,37.53
2018-12-29T01:07:54.888Z,39.53
2018-12-29T01:13:58.223Z,38.03
2018-12-29T01:20:01.528Z,35.60
2018-12-29T01:26:04.860Z,35.43
2018-12-29T01:32:08.200Z,41.53
2018-12-29T01:38:11.536Z,41.00
2018-12-29T01:44:14.956Z,39.40
2018-12-29T01:50:18.300Z,42.50
2018-12-29T01:56:21.631Z,45.13
2018-12-29T02:02:25.735Z,39.73
2018-12-29T02:08:29.073Z,37.07
2018-12-29T02:14:32.404Z,48.87
2018-12-29T02:20:35.712Z,46.30
2018-12-29T02:26:39.119Z,47.47
2018-12-29T02:32:42.455Z,46.27
2018-12-29T02:38:45.864Z,45.03
2018-12-29T02:44:49.236Z,46.67
2018-12-29T02:50:52.582Z,47.03
2018-12-29T02:56:56.042Z,42.23
2018-12-29T03:03:00.265Z,46.37
2018-12-29T03:09:04.685Z,44.43
2018-12-29T03:15:08.162Z,46.43
2018-12-29T03:21:11.736Z,49.90
2018-12-29T03:27:15.070Z,46.23
2018-12-29T03:33:18.405Z,47.37
2018-12-29T03:39:21.741Z,42.90
2018-12-29T03:45:25.189Z,39.20
2018-12-29T03:51:28.529Z,37.47
2018-12-29T03:57:31.999Z,36.67
2018-12-29T04:03:36.157Z,37.37
2018-12-29T04:09:39.497Z,41.33
2018-12-29T04:15:42.906Z,46.03
2018-12-29T04:21:46.288Z,42.37
2018-12-29T04:27:49.624Z,46.30
2018-12-29T04:33:52.948Z,35.13
2018-12-29T04:39:56.284Z,40.80
2018-12-29T04:46:05.220Z,31.63
2018-12-29T04:52:04.720Z,37.63
2018-12-29T04:58:08.100Z,35.57
2018-12-29T05:04:12.299Z,29.57
2018-12-29T05:10:15.708Z,32.50
2018-12-29T05:16:19.039Z,32.13
2018-12-29T05:22:22.407Z,29.87
2018-12-29T05:28:25.975Z,28.30
2018-12-29T05:34:29.369Z,37.43
2018-12-29T05:40:32.671Z,42.27
2018-12-29T05:46:36.148Z,32.23
2018-12-29T05:52:39.488Z,31.07
2018-12-29T05:58:42.897Z,32.13
2018-12-29T06:04:47.121Z,28.43
2018-12-29T06:10:50.508Z,26.80
2018-12-29T06:16:53.842Z,35.77
2018-12-29T06:22:57.152Z,28.17
2018-12-29T06:29:00.487Z,23.67
2018-12-29T06:35:03.889Z,25.87
2018-12-29T06:41:07.408Z,27.03
2018-12-29T06:47:11.347Z,28.07
2018-12-29T06:53:14.755Z,28.13
2018-12-29T06:59:18.136Z,31.17
2018-12-29T07:05:23.075Z,30.53
2018-12-29T07:11:26.639Z,32.73
2018-12-29T07:17:29.977Z,32.20
2018-12-29T07:23:33.433Z,28.07
2018-12-29T07:29:38.426Z,30.27
2018-12-29T07:35:41.985Z,32.10
2018-12-29T07:41:45.396Z,33.67
2018-12-29T07:47:49.619Z,30.47
2018-12-29T07:53:53.331Z,36.57
2018-12-29T07:59:56.640Z,35.43
2018-12-29T08:06:00.785Z,34.30
2018-12-29T08:12:04.120Z,45.00
2018-12-29T08:18:07.457Z,45.77
2018-12-29T08:24:10.848Z,35.43
2018-12-29T08:30:14.180Z,40.37
2018-12-29T08:36:17.516Z,45.50
2018-12-29T08:42:20.919Z,38.47
2018-12-29T08:48:25.237Z,50.70
2018-12-29T08:54:28.604Z,167.40
2018-12-29T09:00:32.150Z,73.13
2018-12-29T09:06:36.396Z,72.67
2018-12-29T09:12:39.741Z,101.37
2018-12-29T09:18:49.581Z,103.57
2018-12-29T09:24:48.200Z,73.27
2018-12-29T09:30:51.528Z,76.63
2018-12-29T09:36:54.869Z,67.90
2018-12-29T09:42:58.276Z,51.60
2018-12-29T09:49:01.659Z,499.47
2018-12-29T09:55:05.468Z,538.17
2018-12-29T10:01:08.872Z,356.83
2018-12-29T10:07:12.209Z,245.93
2018-12-29T10:13:15.620Z,108.80
2018-12-29T10:19:18.965Z,202.97
2018-12-29T10:25:22.277Z,80.67
2018-12-29T10:31:25.612Z,60.53
2018-12-29T10:37:28.941Z,75.43
2018-12-29T10:43:32.279Z,71.63
2018-12-29T10:49:36.248Z,48.80
2018-12-29T10:55:39.588Z,127.03
2018-12-29T11:01:42.996Z,268.27
2018-12-29T11:07:47.150Z,105.47
2018-12-29T11:13:50.604Z,64.47
2018-12-29T11:19:53.936Z,85.80
2018-12-29T11:25:57.384Z,64.43
2018-12-29T11:32:00.729Z,50.77
2018-12-29T11:38:04.064Z,45.47
2018-12-29T11:44:07.616Z,51.57
2018-12-29T11:50:11.724Z,65.60
2018-12-29T11:56:15.146Z,42.47
2018-12-29T12:02:24.469Z,112.60
2018-12-29T12:08:23.677Z,134.27
2018-12-29T12:14:27.144Z,388.90
2018-12-29T12:20:30.602Z,295.07
2018-12-29T12:26:33.964Z,470.47
2018-12-29T12:32:37.384Z,342.37
2018-12-29T12:39:15.505Z,142.07
2018-12-29T12:59:41.866Z,341.56
2018-12-29T13:05:45.331Z,108.80
2018-12-29T13:11:49.557Z,83.30
2018-12-29T13:17:53.017Z,53.13
2018-12-29T13:23:56.594Z,55.63
2018-12-29T13:29:59.979Z,64.83
2018-12-29T13:36:03.389Z,74.83
2018-12-29T13:42:06.796Z,75.13
2018-12-29T13:48:10.213Z,102.37
2018-12-29T13:54:13.636Z,657.77
2018-12-29T14:00:18.820Z,141.70
2018-12-29T14:06:22.280Z,88.60
2018-12-29T14:12:26.753Z,54.30
2018-12-29T14:18:31.012Z,124.83
2018-12-29T14:24:34.661Z,57.17
2018-12-29T14:30:38.041Z,60.10
2018-12-29T14:36:42.496Z,57.03
2018-12-29T14:42:46.264Z,72.73
2018-12-29T14:48:49.678Z,65.83
2018-12-29T14:54:53.089Z,65.07
2018-12-29T15:00:56.527Z,67.07
2018-12-29T15:06:59.937Z,58.30
2018-12-29T15:13:04.420Z,53.53
2018-12-29T15:19:08.858Z,67.90
2018-12-29T15:25:12.273Z,67.90
2018-12-29T15:31:16.075Z,60.13
2018-12-29T15:37:19.568Z,64.70
2018-12-29T15:43:23.102Z,53.23
2018-12-29T15:49:26.529Z,53.83
2018-12-29T15:55:30.229Z,51.47
2018-12-29T16:01:33.967Z,40.50
2018-12-29T16:07:37.361Z,40.43
2018-12-29T16:13:42.502Z,48.60
2018-12-29T16:19:45.907Z,63.80
2018-12-29T16:25:49.325Z,217.53
2018-12-29T16:31:52.722Z,394.03
2018-12-29T16:37:56.140Z,588.20
2018-12-29T16:43:59.560Z,533.73
2018-12-29T16:50:02.976Z,322.57
2018-12-29T16:56:06.396Z,628.40
2018-12-29T17:02:09.833Z,682.80
2018-12-29T17:08:13.253Z,480.97
2018-12-29T17:14:17.773Z,315.83
2018-12-29T17:20:21.201Z,225.57
2018-12-29T17:26:24.606Z,149.67
2018-12-29T17:32:28.000Z,113.17
2018-12-29T17:38:31.402Z,91.23
2018-12-29T17:44:35.113Z,71.33
2018-12-29T17:50:38.528Z,57.03
2018-12-29T17:56:41.960Z,50.30
2018-12-29T18:02:45.702Z,56.47
2018-12-29T18:08:49.080Z,58.20
2018-12-29T18:14:53.368Z,47.00
2018-12-29T18:20:56.748Z,38.90
2018-12-29T18:27:00.428Z,37.87
2018-12-29T18:33:03.840Z,35.40
2018-12-29T18:39:07.593Z,37.23
2018-12-29T18:45:11.008Z,39.53
2018-12-29T18:51:14.421Z,43.00
2018-12-29T18:57:18.140Z,39.13
2018-12-29T19:03:21.581Z,39.07
2018-12-29T19:09:24.983Z,36.13
2018-12-29T19:15:29.204Z,40.87
2018-12-29T19:21:33.017Z,39.43
2018-12-29T19:27:36.831Z,37.33
2018-12-29T19:33:40.210Z,40.33
2018-12-29T19:39:43.627Z,49.80
2018-12-29T19:45:47.028Z,40.60
2018-12-29T19:51:50.704Z,36.00
2018-12-29T19:57:54.288Z,32.47
2018-12-29T20:04:01.080Z,31.10
2018-12-29T20:10:06.185Z,29.47
2018-12-29T20:16:10.418Z,27.47
2018-12-29T20:22:15.466Z,50.50
2018-12-29T20:28:19.020Z,50.63
2018-12-29T20:34:22.401Z,43.63
2018-12-29T20:40:26.018Z,44.83
2018-12-29T20:46:29.428Z,42.37
2018-12-29T20:52:32.840Z,42.83
2018-12-29T20:58:36.251Z,40.47
2018-12-29T21:04:39.679Z,46.67
2018-12-29T21:10:43.098Z,35.73
2018-12-29T21:16:47.399Z,36.10
2018-12-29T21:22:50.825Z,42.27
2018-12-29T21:28:54.236Z,36.57
2018-12-29T21:34:57.821Z,37.30
2018-12-29T21:41:01.227Z,41.93
2018-12-29T21:47:04.632Z,41.83
2018-12-29T21:53:08.340Z,33.53
2018-12-29T21:59:11.756Z,30.40
2018-12-29T22:05:15.208Z,28.00
2018-12-29T22:11:19.054Z,32.83
2018-12-29T22:17:24.248Z,33.43
2018-12-29T22:23:27.660Z,32.53
2018-12-29T22:29:31.069Z,25.47
2018-12-29T22:35:34.453Z,29.97
2018-12-29T22:41:37.871Z,24.93
2018-12-29T22:47:41.285Z,24.43
2018-12-29T22:53:44.696Z,25.60
2018-12-29T22:59:48.106Z,23.60
2018-12-29T23:05:51.605Z,23.20
2018-12-29T23:11:55.012Z,24.93
2018-12-29T23:17:59.281Z,27.27
2018-12-29T23:24:02.873Z,33.83
2018-12-29T23:30:06.284Z,33.03
2018-12-29T23:36:09.668Z,33.27
2018-12-29T23:42:13.077Z,33.03
2018-12-29T23:48:16.533Z,33.30
2018-12-29T23:54:20.018Z,24.60
